Time;durP1;ratioP1;P1;durP2;ratioP2;P2;SDS_P1;SDS_P2;PMS_P1;PMS_P2;Temp;Humidity;BMP_temperature;BMP_pressure;BME280_temperature;BME280_humidity;BME280_pressure;Samples;Min_cycle;Max_cycle;Signal;HPM_P1;HPM_P2
2021/12/08 00:00:36;;;;;;;6.43;1.70;;;;;;;-149.78;100.00;50596.63;5133330;27;20354;-67
2021/12/08 00:03:04;;;;;;;7.97;2.47;;;;;;;-149.78;100.00;50598.56;5125296;27;20063;-67
2021/12/08 00:05:31;;;;;;;10.18;3.08;;;;;;;-149.78;100.00;50600.53;5114401;27;20032;-67
2021/12/08 00:07:57;;;;;;;8.25;1.98;;;;;;;-149.78;100.00;50596.63;5130569;27;20454;-67
2021/12/08 00:13:07;;;;;;;9.73;2.38;;;;;;;-149.78;100.00;50606.41;5122492;27;20386;-67
2021/12/08 00:15:44;;;;;;;9.50;2.70;;;;;;;-149.78;100.00;50622.03;5134388;27;20027;-67
2021/12/08 00:18:13;;;;;;;9.07;2.53;;;;;;;-149.78;100.00;50610.31;5138825;27;20037;-67
2021/12/08 00:20:42;;;;;;;8.43;2.20;;;;;;;-149.78;100.00;50608.34;5131741;27;20043;-67
2021/12/08 00:23:08;;;;;;;8.70;1.58;;;;;;;-149.78;100.00;50604.44;5118310;27;20028;-67
2021/12/08 00:25:36;;;;;;;9.90;2.65;;;;;;;-149.78;100.00;50608.34;5130708;27;20098;-68
2021/12/08 00:28:03;;;;;;;8.13;2.63;;;;;;;-149.78;100.00;50616.19;5116787;28;20043;-68
2021/12/08 00:30:29;;;;;;;11.20;2.42;;;;;;;-149.78;100.00;50608.34;5131212;27;20037;-68
2021/12/08 00:32:57;;;;;;;12.38;3.00;;;;;;;-149.78;100.00;50588.78;5116961;27;20028;-67
2021/12/08 00:35:23;;;;;;;11.43;2.22;;;;;;;-149.78;100.00;50571.19;5139271;27;20039;-68
2021/12/08 00:37:49;;;;;;;10.27;2.95;;;;;;;-149.78;100.00;50590.75;5139696;27;20061;-68
2021/12/08 00:40:17;;;;;;;4.57;1.55;;;;;;;-149.78;100.00;50588.78;5136949;27;20419;-67
2021/12/08 00:42:43;;;;;;;12.93;3.28;;;;;;;-149.78;100.00;50624.00;5105003;28;20378;-68
2021/12/08 00:45:11;;;;;;;13.70;2.53;;;;;;;-149.78;100.00;50596.63;5124084;27;20394;-68
2021/12/08 00:47:37;;;;;;;10.23;1.98;;;;;;;-149.78;100.00;50579.00;5134602;27;20036;-67
2021/12/08 00:50:08;;;;;;;16.80;3.78;;;;;;;-149.78;100.00;50592.72;5100990;28;20115;-67
2021/12/08 00:52:34;;;;;;;7.72;2.20;;;;;;;-149.78;100.00;50620.09;5097855;28;20040;-67
2021/12/08 01:13:29;;;;;;;10.68;2.00;;;;;;;-149.78;100.00;50584.88;5136676;27;20088;-67
2021/12/08 01:15:57;;;;;;;5.35;1.55;;;;;;;-149.78;100.00;50580.97;5118772;27;20042;-67
2021/12/08 01:18:25;;;;;;;10.05;1.40;;;;;;;-149.78;100.00;50577.06;5150538;27;20031;-67
2021/12/08 01:20:52;;;;;;;8.02;1.48;;;;;;;-149.78;100.00;50580.97;5126908;27;20043;-67
2021/12/08 01:23:19;;;;;;;9.52;1.40;;;;;;;-149.78;100.00;50596.63;5108526;27;20035;-67
2021/12/08 01:25:45;;;;;;;7.03;1.45;;;;;;;-149.78;100.00;50616.19;5139728;27;20034;-67
2021/12/08 01:28:11;;;;;;;4.80;1.48;;;;;;;-149.78;100.00;50602.47;5134225;27;20061;-67
2021/12/08 01:30:37;;;;;;;6.03;1.33;;;;;;;-149.78;100.00;50616.19;5117278;27;20046;-68
2021/12/08 01:33:03;;;;;;;7.97;1.60;;;;;;;-149.78;100.00;50584.88;5127893;27;20036;-68
2021/12/08 01:35:30;;;;;;;9.95;1.70;;;;;;;-149.78;100.00;50639.66;5144196;27;20039;-68
2021/12/08 01:37:56;;;;;;;6.88;1.60;;;;;;;-149.78;100.00;50627.91;5150552;27;20042;-67
2021/12/08 01:40:22;;;;;;;4.40;1.58;;;;;;;-149.78;100.00;50553.59;5131852;27;20117;-67
2021/12/08 01:42:51;;;;;;;14.35;1.90;;;;;;;-149.78;100.00;50594.66;5138540;27;20068;-67
2021/12/08 01:48:11;;;;;;;6.47;1.42;;;;;;;-149.78;100.00;50608.34;5134454;27;20031;-68
2021/12/08 01:50:39;;;;;;;6.70;1.52;;;;;;;-149.78;100.00;50639.66;5135192;27;20034;-68
2021/12/08 01:53:08;;;;;;;9.70;1.50;;;;;;;-149.78;100.00;50625.94;5146955;27;20030;-67
2021/12/08 01:55:35;;;;;;;7.38;1.40;;;;;;;-149.78;100.00;50553.59;5136820;27;20031;-67
2021/12/08 01:58:01;;;;;;;12.82;1.50;;;;;;;-149.78;100.00;50584.88;5134648;27;20039;-67
2021/12/08 02:00:31;;;;;;;8.85;1.45;;;;;;;-149.78;100.00;50584.88;5148902;27;20043;-68
2021/12/08 02:02:57;;;;;;;7.90;1.40;;;;;;;-149.78;100.00;50612.25;5129465;27;20042;-68
2021/12/08 02:05:23;;;;;;;13.45;1.90;;;;;;;-149.78;100.00;50614.22;5146209;27;20035;-67
2021/12/08 02:07:50;;;;;;;6.03;1.35;;;;;;;-149.78;100.00;50616.19;5125341;27;20039;-68
2021/12/08 02:10:16;;;;;;;8.50;1.50;;;;;;;-149.78;100.00;50602.47;5129264;27;20031;-68
2021/12/08 02:12:42;;;;;;;8.18;1.35;;;;;;;-149.78;100.00;50631.81;5123218;27;20473;-68
2021/12/08 02:15:12;;;;;;;4.07;1.30;;;;;;;-149.78;100.00;50624.00;5148636;27;20033;-68
2021/12/08 02:17:38;;;;;;;5.60;1.30;;;;;;;-149.78;100.00;50584.88;5142619;27;20392;-68
2021/12/08 02:20:07;;;;;;;6.45;1.35;;;;;;;-149.78;100.00;50608.34;5138130;27;20088;-67
2021/12/08 02:22:32;;;;;;;6.72;1.65;;;;;;;-149.78;100.00;50594.66;5148286;27;20077;-68
2021/12/08 02:24:58;;;;;;;7.18;1.48;;;;;;;-149.78;100.00;50616.19;5129085;27;20031;-68
2021/12/08 02:27:24;;;;;;;4.82;1.58;;;;;;;-149.78;100.00;50606.41;5135325;27;20436;-68
2021/12/08 02:29:57;;;;;;;8.23;1.30;;;;;;;-149.78;100.00;50604.44;5143892;27;20069;-68
2021/12/08 02:48:31;;;;;;;2.63;0.70;;;;;;;-149.78;100.00;50588.78;5128609;27;20031;-67
2021/12/08 02:50:57;;;;;;;1.38;0.45;;;;;;;-149.78;100.00;50600.53;5126306;27;20498;-67
2021/12/08 02:53:23;;;;;;;1.25;0.40;;;;;;;-149.78;100.00;50633.78;5137233;27;20037;-67
2021/12/08 02:55:49;;;;;;;3.70;0.85;;;;;;;-149.78;100.00;50624.00;5155248;27;20365;-67
2021/12/08 02:58:15;;;;;;;0.68;0.40;;;;;;;-149.78;100.00;50624.00;5137185;27;20043;-68
2021/12/08 03:00:49;;;;;;;4.10;0.90;;;;;;;-149.78;100.00;50624.00;5147852;27;20070;-68
2021/12/08 03:03:15;;;;;;;0.80;0.40;;;;;;;-149.78;100.00;50608.34;5147786;27;20026;-68
2021/12/08 03:05:41;;;;;;;0.63;0.45;;;;;;;-149.78;100.00;50647.47;5148430;27;20104;-68
2021/12/08 03:08:08;;;;;;;3.22;0.38;;;;;;;-149.78;100.00;50629.88;5132183;27;20083;-68
2021/12/08 03:10:40;;;;;;;2.50;0.57;;;;;;;-149.78;100.00;50612.25;5146321;27;20367;-68
2021/12/08 03:13:06;;;;;;;1.65;0.60;;;;;;;-149.78;100.00;50616.19;5113396;27;20031;-68
2021/12/08 03:15:34;;;;;;;1.25;0.38;;;;;;;-149.78;100.00;50627.91;5144331;27;20080;-68
2021/12/08 03:17:59;;;;;;;2.08;0.35;;;;;;;-149.78;100.00;50584.88;5154235;27;20038;-68
2021/12/08 03:20:43;;;;;;;0.70;0.50;;;;;;;-149.78;100.00;50620.09;5130102;27;20546;-67
2021/12/08 03:23:20;;;;;;;1.98;0.60;;;;;;;-149.78;100.00;50608.34;5147941;27;20460;-68
2021/12/08 03:25:55;;;;;;;3.60;0.50;;;;;;;-149.78;100.00;50627.91;5120629;28;20027;-68
2021/12/08 03:28:25;;;;;;;5.60;0.80;;;;;;;-149.78;100.00;50580.97;5148611;27;20385;-67
2021/12/08 03:31:19;;;;;;;2.00;0.57;;;;;;;-149.78;100.00;50600.53;5136129;27;20035;-67
2021/12/08 03:33:37;;;;;;;0.73;0.40;;;;;;;-149.78;100.00;50588.78;5153854;27;20047;-68
2021/12/08 03:36:03;;;;;;;2.65;0.70;;;;;;;-149.78;100.00;50616.19;5149300;27;20079;-67
2021/12/08 03:38:30;;;;;;;1.35;0.73;;;;;;;-149.78;100.00;50618.13;5139819;27;20035;-67
2021/12/08 03:40:58;;;;;;;1.33;0.70;;;;;;;-149.78;100.00;50588.78;5135393;27;20023;-67
2021/12/08 03:43:24;;;;;;;2.92;0.80;;;;;;;-149.78;100.00;50631.81;5132528;27;20030;-67
2021/12/08 03:45:53;;;;;;;1.17;0.77;;;;;;;-149.78;100.00;50620.09;5152201;27;20075;-68
2021/12/08 03:48:27;;;;;;;1.85;0.63;;;;;;;-149.78;100.00;50620.09;5130464;27;20058;-67
2021/12/08 03:50:54;;;;;;;3.30;0.73;;;;;;;-149.78;100.00;50668.97;5151446;27;20031;-67
2021/12/08 03:53:20;;;;;;;3.70;1.08;;;;;;;-149.78;100.00;50627.91;5119148;27;20477;-67
2021/12/08 03:55:48;;;;;;;2.53;1.00;;;;;;;-149.78;100.00;50624.00;5136852;27;20046;-68
2021/12/08 03:58:14;;;;;;;2.97;1.00;;;;;;;-149.78;100.00;50602.47;5146958;27;20419;-67
2021/12/08 04:00:41;;;;;;;3.38;1.10;;;;;;;-149.78;100.00;50596.63;5156476;27;20031;-67
2021/12/08 04:03:07;;;;;;;1.58;0.80;;;;;;;-149.78;100.00;50588.78;5158614;27;20486;-67
2021/12/08 04:08:17;;;;;;;3.78;1.83;;;;;;;-149.78;100.00;50592.72;5156773;27;20049;-67
2021/12/08 04:10:45;;;;;;;;;;;;;;;-149.78;100.00;50616.19;5158552;27;20038;-67
2021/12/08 04:13:10;;;;;;;3.95;1.73;;;;;;;-149.78;100.00;50647.47;5137924;27;19919;-67
2021/12/08 04:15:36;;;;;;;5.60;1.40;;;;;;;-149.78;100.00;50620.09;5147443;27;20034;-67
2021/12/08 04:18:02;;;;;;;3.67;1.45;;;;;;;-149.78;100.00;50600.53;5156486;27;20041;-67
2021/12/08 04:20:43;;;;;;;2.67;1.35;;;;;;;-149.78;100.00;50620.09;5144833;27;20070;-67
2021/12/08 04:23:16;;;;;;;5.00;1.00;;;;;;;-149.78;100.00;50616.19;5137866;27;20054;-67
2021/12/08 04:25:45;;;;;;;4.32;0.98;;;;;;;-149.78;100.00;50594.66;5145981;27;20026;-67
2021/12/08 04:28:16;;;;;;;2.15;1.08;;;;;;;-149.78;100.00;50592.72;5156651;27;20041;-67
2021/12/08 04:30:49;;;;;;;2.70;0.82;;;;;;;-149.78;100.00;50620.09;5145161;27;20027;-67
2021/12/08 04:33:16;;;;;;;4.72;0.60;;;;;;;-149.78;100.00;50604.44;5144557;27;20058;-67
2021/12/08 04:35:46;;;;;;;1.48;0.70;;;;;;;-149.78;100.00;50577.06;5137196;27;20030;-67
2021/12/08 04:38:18;;;;;;;3.38;0.80;;;;;;;-149.78;100.00;50582.94;5137207;27;20047;-67
2021/12/08 04:41:03;;;;;;;1.50;0.68;;;;;;;-149.78;100.00;50624.00;5137025;27;20061;-68
2021/12/08 04:43:48;;;;;;;3.78;0.82;;;;;;;-149.78;100.00;50604.44;5137149;27;20121;-67
2021/12/08 04:46:53;;;;;;;4.80;0.85;;;;;;;-149.78;100.00;50618.13;5135292;27;20042;-67
2021/12/08 04:52:53;;;;;;;3.22;0.52;;;;;;;-149.78;100.00;50624.00;5119904;27;20103;-67
2021/12/08 05:08:54;;;;;;;3.47;0.80;;;;;;;-149.78;100.00;50635.72;5136661;27;20027;-67
2021/12/08 05:11:32;;;;;;;6.93;1.17;;;;;;;-149.78;100.00;50612.25;5136458;27;20027;-67
2021/12/08 05:14:05;;;;;;;1.77;0.70;;;;;;;-149.78;100.00;50580.97;5136644;27;20038;-68
2021/12/08 05:16:32;;;;;;;5.35;1.00;;;;;;;-149.78;100.00;50616.19;5136552;27;20080;-67
2021/12/08 05:19:01;;;;;;;3.95;0.93;;;;;;;-149.78;100.00;50561.41;5118276;27;20051;-67
2021/12/08 05:21:43;;;;;;;7.80;0.90;;;;;;;-149.78;100.00;50624.00;5136414;27;20031;-67
2021/12/08 05:24:21;;;;;;;8.52;1.70;;;;;;;-149.78;100.00;50592.72;5136468;27;20023;-68
2021/12/08 05:26:49;;;;;;;5.03;1.20;;;;;;;-149.78;100.00;50620.09;5136451;27;20031;-68
2021/12/08 05:29:20;;;;;;;4.97;0.85;;;;;;;-149.78;100.00;50616.19;5136309;27;20019;-68
2021/12/08 05:31:47;;;;;;;9.02;1.08;;;;;;;-149.78;100.00;50604.44;5135863;27;20054;-68
2021/12/08 05:34:13;;;;;;;3.20;0.77;;;;;;;-149.78;100.00;50600.53;5136178;27;20038;-68
2021/12/08 05:36:40;;;;;;;11.13;0.88;;;;;;;-149.78;100.00;50584.88;5136327;27;20031;-68
2021/12/08 05:39:09;;;;;;;3.75;1.13;;;;;;;-149.78;100.00;50616.19;5136070;27;20039;-68
2021/12/08 05:41:38;;;;;;;5.57;0.98;;;;;;;-149.78;100.00;50612.25;5136068;27;20023;-68
2021/12/08 05:44:04;;;;;;;3.72;0.98;;;;;;;-149.78;100.00;50608.34;5136027;27;20054;-68
2021/12/08 05:46:32;;;;;;;6.32;1.08;;;;;;;-149.78;100.00;50620.09;5135879;27;20027;-68
2021/12/08 05:49:00;;;;;;;4.75;0.73;;;;;;;-149.78;100.00;50592.72;5135870;27;20034;-68
2021/12/08 05:51:31;;;;;;;6.03;1.20;;;;;;;-149.78;100.00;50604.44;5135743;27;20038;-68
2021/12/08 05:54:02;;;;;;;5.05;1.30;;;;;;;-149.78;100.00;50631.81;5135521;27;20086;-68
2021/12/08 05:56:28;;;;;;;2.03;0.75;;;;;;;-149.78;100.00;50643.56;5135698;27;20042;-68
2021/12/08 05:58:56;;;;;;;3.53;0.98;;;;;;;-149.78;100.00;50618.13;5135585;27;20027;-68
2021/12/08 06:01:33;;;;;;;3.92;0.90;;;;;;;-149.78;100.00;50604.44;5135474;27;20035;-68
2021/12/08 06:04:01;;;;;;;7.20;0.80;;;;;;;-149.78;100.00;50631.81;5134659;27;20065;-68
2021/12/08 06:06:27;;;;;;;4.93;0.63;;;;;;;-149.78;100.00;50627.91;5135519;27;20087;-68
2021/12/08 06:08:54;;;;;;;3.55;0.80;;;;;;;-149.78;100.00;50592.72;5135540;27;20031;-68
2021/12/08 06:11:20;;;;;;;2.42;0.75;;;;;;;-149.78;100.00;50592.72;5135404;27;20049;-68
2021/12/08 06:13:48;;;;;;;3.00;0.73;;;;;;;-149.78;100.00;50616.19;5117130;27;20397;-68
2021/12/08 06:16:15;;;;;;;2.05;0.90;;;;;;;-149.78;100.00;50596.63;5135301;27;20031;-68
2021/12/08 06:18:42;;;;;;;3.20;0.70;;;;;;;-149.78;100.00;50624.00;5135003;27;20433;-68
2021/12/08 06:21:14;;;;;;;2.80;0.57;;;;;;;-149.78;100.00;50608.34;5135252;27;20381;-68
2021/12/08 06:23:42;;;;;;;6.28;0.73;;;;;;;-149.78;100.00;50592.72;5116962;27;20035;-68
2021/12/08 06:26:10;;;;;;;1.90;1.08;;;;;;;-149.78;100.00;50624.00;5135302;27;20045;-68
2021/12/08 06:28:36;;;;;;;2.20;0.65;;;;;;;-149.78;100.00;50612.25;5135276;27;20474;-69
2021/12/08 06:31:04;;;;;;;2.10;0.68;;;;;;;-149.78;100.00;50604.44;5135058;27;20396;-69
2021/12/08 06:33:31;;;;;;;1.63;0.45;;;;;;;-149.78;100.00;50655.28;5135054;27;20067;-68
2021/12/08 06:36:06;;;;;;;3.28;0.73;;;;;;;-149.78;100.00;50600.53;5135078;27;20058;-68
2021/12/08 06:38:33;;;;;;;4.00;0.50;;;;;;;-149.78;100.00;50643.56;5135120;27;20381;-69
2021/12/08 06:41:15;;;;;;;1.60;0.30;;;;;;;-149.78;100.00;50592.72;5127657;27;20547;-68
2021/12/08 06:44:04;;;;;;;1.83;0.40;;;;;;;-149.78;100.00;50635.72;5134662;27;20031;-68
2021/12/08 06:46:31;;;;;;;0.52;0.22;;;;;;;-149.78;100.00;50608.34;5134714;27;20027;-68
2021/12/08 06:49:00;;;;;;;1.40;0.43;;;;;;;-149.78;100.00;50596.63;5134588;27;20026;-68
2021/12/08 06:51:41;;;;;;;1.45;0.40;;;;;;;-149.78;100.00;50655.28;5134665;27;20058;-68
2021/12/08 06:54:22;;;;;;;0.93;0.30;;;;;;;-149.78;100.00;50600.53;5120199;27;20416;-68
2021/12/08 06:56:56;;;;;;;1.67;0.25;;;;;;;-149.78;100.00;50620.09;5119178;27;20051;-68
2021/12/08 06:59:30;;;;;;;0.22;0.20;;;;;;;-149.78;100.00;50616.19;5115928;27;20034;-68
2021/12/08 07:05:08;;;;;;;1.85;0.32;;;;;;;-149.78;100.00;50573.16;5130315;27;20023;-68
2021/12/08 07:07:36;;;;;;;0.98;0.30;;;;;;;-149.78;100.00;50633.78;5124352;27;20118;-67
2021/12/08 07:10:10;;;;;;;0.15;0.15;;;;;;;-149.78;100.00;50625.94;5127961;27;20031;-68
2021/12/08 07:12:40;;;;;;;0.20;0.20;;;;;;;-149.78;100.00;50649.44;5119367;27;20042;-68
2021/12/08 07:15:09;;;;;;;0.30;0.30;;;;;;;-149.78;100.00;50649.44;5121413;27;20506;-69
2021/12/08 07:17:37;;;;;;;0.30;0.30;;;;;;;-149.78;100.00;50620.09;5118487;27;20043;-69
2021/12/08 07:23:05;;;;;;;0.30;0.30;;;;;;;-149.78;100.00;50604.44;5070450;28;20157;-69
2021/12/08 07:25:33;;;;;;;0.32;0.32;;;;;;;-149.78;100.00;50635.72;5141335;27;20106;-67
2021/12/08 07:28:00;;;;;;;0.30;0.30;;;;;;;-149.78;100.00;50643.56;5154959;27;20041;-66
2021/12/08 07:30:33;;;;;;;0.43;0.30;;;;;;;-149.78;100.00;50655.28;5154892;27;20079;-68
2021/12/08 07:33:00;;;;;;;0.35;0.30;;;;;;;-149.78;100.00;50635.72;5145367;27;20027;-70
2021/12/08 07:35:48;;;;;;;0.28;0.28;;;;;;;-149.78;100.00;50627.91;5138380;27;20126;-67
2021/12/08 07:38:17;;;;;;;0.38;0.30;;;;;;;-149.78;100.00;50655.28;5133845;27;20038;-68
2021/12/08 07:40:51;;;;;;;2.63;0.45;;;;;;;-149.78;100.00;50635.72;5134047;28;20462;-68
2021/12/08 07:43:20;;;;;;;0.43;0.43;;;;;;;-149.78;100.00;50620.09;5111119;28;20043;-68
2021/12/08 07:46:02;;;;;;;0.82;0.47;;;;;;;-149.78;100.00;50643.56;5112657;28;20035;-68
2021/12/08 07:48:39;;;;;;;6.72;0.75;;;;;;;-149.78;100.00;50612.25;5112656;28;20039;-68
2021/12/08 07:51:13;;;;;;;0.75;0.50;;;;;;;-149.78;100.00;50643.56;5112569;28;20340;-68
2021/12/08 07:53:40;;;;;;;0.60;0.50;;;;;;;-149.78;100.00;50651.38;5111984;28;20051;-68
2021/12/08 07:56:08;;;;;;;0.60;0.50;;;;;;;-149.78;100.00;50631.81;5112285;28;20032;-68
2021/12/08 07:58:39;;;;;;;0.75;0.52;;;;;;;-149.78;100.00;50627.91;5114107;28;20035;-69
2021/12/08 08:01:18;;;;;;;0.50;0.40;;;;;;;-149.78;100.00;50608.34;5132556;28;20031;-65
2021/12/08 08:03:44;;;;;;;1.38;0.65;;;;;;;-149.78;100.00;50600.53;5113607;28;20032;-65
2021/12/08 08:06:16;;;;;;;0.63;0.50;;;;;;;-149.78;100.00;50620.09;5123471;27;20031;-67
2021/12/08 08:08:42;;;;;;;0.70;0.70;;;;;;;-149.78;100.00;50579.00;5131155;27;20030;-65
2021/12/08 08:11:13;;;;;;;1.80;0.68;;;;;;;-149.78;100.00;50635.72;5123983;27;20027;-66
2021/12/08 08:13:39;;;;;;;1.08;0.77;;;;;;;-149.78;100.00;50612.25;5137359;27;20530;-69
2021/12/08 08:16:10;;;;;;;1.95;0.50;;;;;;;-149.78;100.00;50608.34;5133175;27;20478;-71
2021/12/08 08:18:40;;;;;;;1.88;0.60;;;;;;;-149.78;100.00;50586.84;5134927;27;20106;-71
2021/12/08 08:21:13;;;;;;;0.95;0.68;;;;;;;-149.78;100.00;50622.03;5097367;27;20040;-71
2021/12/08 08:23:39;;;;;;;1.38;0.70;;;;;;;-149.78;100.00;50631.81;5103749;28;20531;-71
2021/12/08 08:26:08;;;;;;;0.82;0.50;;;;;;;-149.78;100.00;50659.19;5112023;27;20028;-70
2021/12/08 08:28:35;;;;;;;0.95;0.70;;;;;;;-149.78;100.00;50584.88;5107164;27;20028;-70
2021/12/08 08:31:06;;;;;;;1.65;0.63;;;;;;;-149.78;100.00;50598.56;5101811;27;20123;-70
2021/12/08 08:33:33;;;;;;;1.98;0.52;;;;;;;-149.78;100.00;50631.81;5110531;27;20077;-70
2021/12/08 08:36:04;;;;;;;0.47;0.47;;;;;;;-149.78;100.00;50608.34;5111312;27;20032;-70
2021/12/08 08:38:40;;;;;;;1.70;0.70;;;;;;;-149.78;100.00;50631.81;5115967;28;20038;-70
2021/12/08 08:41:11;;;;;;;0.88;0.80;;;;;;;-149.78;100.00;50635.72;5116244;28;20050;-70
2021/12/08 08:43:37;;;;;;;1.13;0.75;;;;;;;-149.78;100.00;50610.31;5099634;28;20020;-70
2021/12/08 08:46:13;;;;;;;0.63;0.60;;;;;;;-149.78;100.00;50584.88;5116644;28;20096;-70
2021/12/08 08:48:48;;;;;;;2.08;1.20;;;;;;;-149.78;100.00;50624.00;5116280;28;20274;-70
2021/12/08 08:51:17;;;;;;;1.63;0.90;;;;;;;-149.78;100.00;50616.19;5116221;28;20023;-70
2021/12/08 08:53:46;;;;;;;3.15;1.08;;;;;;;-149.78;100.00;50655.28;5115114;28;20038;-70
2021/12/08 08:56:18;;;;;;;2.20;1.10;;;;;;;-149.78;100.00;50627.91;5115574;27;20127;-70
2021/12/08 08:58:50;;;;;;;4.03;1.10;;;;;;;-149.78;100.00;50633.78;5122680;27;20035;-70
2021/12/08 09:01:31;;;;;;;2.80;1.45;;;;;;;-149.78;100.00;50627.91;5116146;28;20040;-69
2021/12/08 09:04:07;;;;;;;2.50;1.13;;;;;;;-149.78;100.00;50610.31;5116293;28;20032;-69
2021/12/08 09:06:37;;;;;;;3.03;1.20;;;;;;;-149.78;100.00;50608.34;5115963;28;20085;-69
2021/12/08 09:09:07;;;;;;;3.20;1.45;;;;;;;-149.78;100.00;50596.63;5114759;28;20024;-69
2021/12/08 09:11:38;;;;;;;2.78;1.38;;;;;;;-149.78;100.00;50620.09;5099344;28;20032;-70
2021/12/08 09:14:13;;;;;;;4.15;1.25;;;;;;;-149.78;100.00;50622.03;5115798;28;20023;-70
2021/12/08 09:16:50;;;;;;;2.58;1.13;;;;;;;-149.78;100.00;50633.78;5115593;28;20378;-70
2021/12/08 09:19:31;;;;;;;2.17;1.40;;;;;;;-149.78;100.00;50604.44;5117684;27;20036;-70
2021/12/08 09:22:07;;;;;;;1.10;0.93;;;;;;;-149.78;100.00;50584.88;5136441;27;20034;-70
2021/12/08 09:24:45;;;;;;;3.40;1.30;;;;;;;-149.78;100.00;50612.25;5133592;27;20427;-70
2021/12/08 09:27:15;;;;;;;2.67;1.15;;;;;;;-149.78;100.00;50608.34;5114725;27;20031;-70
2021/12/08 09:29:46;;;;;;;4.15;1.10;;;;;;;-149.78;100.00;50612.25;5150902;27;20527;-70
2021/12/08 09:32:19;;;;;;;4.97;1.40;;;;;;;-149.78;100.00;50612.25;5135638;27;20023;-70
2021/12/08 09:34:57;;;;;;;2.63;1.23;;;;;;;-149.78;100.00;50602.47;5117161;27;20497;-69
2021/12/08 09:37:31;;;;;;;2.13;1.15;;;;;;;-149.78;100.00;50627.91;5135372;27;20524;-69
2021/12/08 09:40:01;;;;;;;3.15;1.38;;;;;;;-149.78;100.00;50602.47;5117072;27;20152;-70
2021/12/08 09:42:34;;;;;;;4.85;1.45;;;;;;;-149.78;100.00;50627.91;5135990;27;20784;-70
2021/12/08 09:45:09;;;;;;;3.17;1.30;;;;;;;-149.78;100.00;50604.44;5135797;27;20035;-69
2021/12/08 09:47:35;;;;;;;3.40;1.38;;;;;;;-149.78;100.00;50577.06;5119440;27;20031;-69
2021/12/08 09:50:06;;;;;;;2.22;1.05;;;;;;;-149.78;100.00;50596.63;5135628;27;20023;-70
2021/12/08 09:52:33;;;;;;;2.67;0.90;;;;;;;-149.78;100.00;50588.78;5135631;27;20031;-70
2021/12/08 09:55:01;;;;;;;2.67;1.10;;;;;;;-149.78;100.00;50600.53;5135659;27;20031;-69
2021/12/08 09:57:29;;;;;;;5.28;1.08;;;;;;;-149.78;100.00;50620.09;5135482;27;20549;-69
2021/12/08 09:59:55;;;;;;;3.80;1.20;;;;;;;-149.78;100.00;50612.25;5135318;27;20023;-69
2021/12/08 10:02:29;;;;;;;5.72;1.55;;;;;;;-149.78;100.00;50639.66;5135008;27;20042;-69
2021/12/08 10:04:57;;;;;;;4.53;2.00;;;;;;;-149.78;100.00;50604.44;5137016;27;20023;-69
2021/12/08 10:07:24;;;;;;;4.75;1.98;;;;;;;-149.78;100.00;50604.44;5132255;27;20028;-69
2021/12/08 10:09:50;;;;;;;8.90;2.75;;;;;;;-149.78;100.00;50577.06;5130240;27;20036;-70
2021/12/08 10:12:18;;;;;;;13.93;3.25;;;;;;;-149.78;100.00;50610.31;5132868;27;20024;-70
2021/12/08 10:14:46;;;;;;;9.40;2.80;;;;;;;-149.78;100.00;50612.25;5138552;27;20038;-70
2021/12/08 10:17:14;;;;;;;7.45;2.95;;;;;;;-149.78;100.00;50557.50;5133367;27;20036;-70
2021/12/08 10:19:42;;;;;;;8.45;2.72;;;;;;;-149.78;100.00;50647.47;5128320;27;20043;-70
2021/12/08 10:22:21;;;;;;;9.70;2.58;;;;;;;-149.78;100.00;50620.09;5131509;27;20447;-70
2021/12/08 10:25:09;;;;;;;7.95;2.45;;;;;;;-149.78;100.00;50616.19;5128951;27;20451;-70
2021/12/08 10:28:15;;;;;;;5.10;2.03;;;;;;;-149.78;100.00;50608.34;5100160;27;20047;-70
2021/12/08 10:30:56;;;;;;;7.53;1.90;;;;;;;-149.78;100.00;50612.25;5133883;27;20087;-70
2021/12/08 10:33:55;;;;;;;8.63;1.90;;;;;;;-149.78;100.00;50573.16;5116424;27;20059;-70
2021/12/08 10:36:46;;;;;;;2.15;1.50;;;;;;;-149.78;100.00;50604.44;5134823;27;20519;-70
2021/12/08 10:39:32;;;;;;;3.42;1.20;;;;;;;-149.78;100.00;50604.44;5134695;27;20455;-71
2021/12/08 10:42:01;;;;;;;8.80;2.75;;;;;;;-149.78;100.00;50577.06;5134574;27;20043;-71
2021/12/08 10:44:40;;;;;;;5.90;1.75;;;;;;;-149.78;100.00;50584.88;5134629;27;20034;-71
2021/12/08 10:47:08;;;;;;;5.00;1.90;;;;;;;-149.78;100.00;50579.00;5134404;27;20022;-71
2021/12/08 10:54:53;;;;;;;11.75;3.35;;;;;;;-149.78;100.00;50631.81;5123419;27;20031;-69
2021/12/08 10:57:30;;;;;;;10.27;2.95;;;;;;;-149.78;100.00;50569.22;5137908;27;20039;-71
2021/12/08 11:00:18;;;;;;;4.63;2.33;;;;;;;-149.78;100.00;50586.84;5135841;27;20113;-69
2021/12/08 11:02:46;;;;;;;3.45;1.40;;;;;;;-149.78;100.00;50592.72;5134524;27;20038;-69
2021/12/08 11:05:24;;;;;;;3.03;1.10;;;;;;;-149.78;100.00;50608.34;5134570;27;20031;-69
2021/12/08 11:08:08;;;;;;;3.20;1.00;;;;;;;-149.78;100.00;50596.63;5101832;27;20035;-69
2021/12/08 11:10:40;;;;;;;2.30;1.23;;;;;;;-149.78;100.00;50553.59;5144057;27;20750;-69
2021/12/08 11:13:08;;;;;;;2.63;1.10;;;;;;;-149.78;100.00;50571.19;5137766;27;20390;-69
2021/12/08 11:15:34;;;;;;;1.60;0.98;;;;;;;-149.78;100.00;50604.44;5134443;27;20034;-69
2021/12/08 11:18:21;;;;;;;1.85;1.20;;;;;;;-149.78;100.00;50590.75;5115844;27;20031;-70
2021/12/08 11:20:47;;;;;;;5.70;1.25;;;;;;;-149.78;100.00;50596.63;5133942;27;20122;-70
2021/12/08 11:23:16;;;;;;;5.63;2.03;;;;;;;-149.78;100.00;50612.25;5134118;28;20119;-69
2021/12/08 11:25:47;;;;;;;4.00;1.50;;;;;;;-149.78;100.00;50573.16;5134287;28;20042;-69
2021/12/08 11:28:20;;;;;;;4.82;1.75;;;;;;;-149.78;100.00;50584.88;5133922;28;20031;-69
2021/12/08 11:30:49;;;;;;;3.63;1.55;;;;;;;-149.78;100.00;50547.72;5134281;28;20031;-70
2021/12/08 11:33:21;;;;;;;1.92;1.30;;;;;;;-149.78;100.00;50592.72;5134065;27;20043;-70
2021/12/08 11:35:48;;;;;;;1.73;1.00;;;;;;;-149.78;100.00;50610.31;5134155;28;20071;-70
2021/12/08 11:38:23;;;;;;;1.20;0.80;;;;;;;-149.78;100.00;50573.16;5133981;28;20031;-70
2021/12/08 11:40:48;;;;;;;0.98;0.70;;;;;;;-149.78;100.00;50588.78;5141151;27;20050;-70
2021/12/08 11:43:14;;;;;;;1.25;0.98;;;;;;;-149.78;100.00;50573.16;5136142;27;20475;-70
2021/12/08 11:45:42;;;;;;;2.45;0.68;;;;;;;-149.78;100.00;50557.50;5138498;27;20039;-70
2021/12/08 11:48:26;;;;;;;1.23;0.90;;;;;;;-149.78;100.00;50604.44;5132427;27;20486;-70
2021/12/08 11:51:18;;;;;;;2.47;1.17;;;;;;;-149.78;100.00;50590.75;5125744;27;20055;-70
2021/12/08 11:53:44;;;;;;;7.53;2.28;;;;;;;-149.78;100.00;50573.16;5116836;28;20047;-70
2021/12/08 11:56:34;;;;;;;7.97;2.67;;;;;;;-149.78;100.00;50586.84;5129194;27;20078;-70
2021/12/08 11:59:01;;;;;;;5.78;2.60;;;;;;;-149.78;100.00;50580.97;5129539;27;20035;-70
2021/12/08 12:01:27;;;;;;;6.20;2.40;;;;;;;-149.78;100.00;50580.97;5131527;27;20373;-70
2021/12/08 12:03:53;;;;;;;5.97;2.67;;;;;;;-149.78;100.00;50588.78;5134667;27;20084;-70
2021/12/08 12:06:27;;;;;;;4.25;2.20;;;;;;;-149.78;100.00;50584.88;5150028;27;20030;-70
2021/12/08 12:08:55;;;;;;;6.57;2.10;;;;;;;-149.78;100.00;50575.09;5124751;27;20368;-69
2021/12/08 12:11:25;;;;;;;6.90;2.20;;;;;;;-149.78;100.00;50561.41;5137598;27;20366;-70
2021/12/08 12:13:55;;;;;;;6.50;1.90;;;;;;;-149.78;100.00;50594.66;5137734;27;20374;-70
2021/12/08 12:16:22;;;;;;;4.43;2.33;;;;;;;-149.78;100.00;50596.63;5119367;27;20038;-69
2021/12/08 12:18:56;;;;;;;5.97;2.30;;;;;;;-149.78;100.00;50596.63;5137351;27;20130;-69
2021/12/08 12:22:16;;;;;;;7.40;2.45;;;;;;;-149.78;100.00;50600.53;5136807;27;20126;-70
2021/12/08 12:25:06;;;;;;;7.50;2.67;;;;;;;-149.78;100.00;50604.44;5053465;28;20393;-70
2021/12/08 12:27:47;;;;;;;4.60;2.55;;;;;;;-149.78;100.00;50580.97;5117521;27;20494;-70
2021/12/08 12:30:29;;;;;;;7.53;2.20;;;;;;;-149.78;100.00;50604.44;5152249;27;20537;-70
2021/12/08 12:32:54;;;;;;;4.18;2.65;;;;;;;-149.78;100.00;50592.72;5151478;27;20361;-70
2021/12/08 12:35:30;;;;;;;6.63;2.88;;;;;;;-149.78;100.00;50600.53;5148637;27;20116;-70
2021/12/08 12:38:06;;;;;;;6.60;2.53;;;;;;;-149.78;100.00;50573.16;5136566;27;20031;-70